Aviation Digital Data Service (ADDS)

Output produced by METARs form (0458 UTC 25 April 2014)
found at http://aviationweather.gov/adds/metars/
 
KGSP 242341Z 2500/2524 15005KT P6SM FEW250 
     FM250900 13005KT P6SM BKN015 OVC026 
     FM251100 16006KT P6SM BKN006 OVC015 
     FM251400 20010KT P6SM VCTS OVC012CB 
     FM251600 23014G23KT P6SM VCTS SCT025CB BKN045 
     PROB30 2516/2518 4SM TSRA BKN040CB 
     FM252000 25015G25KT P6SM VCSH SCT060